Terminal Aerodrome Forecast
Issued by NWS

Home | Current Version | Previous Version | Text Only | Print | Product List | Glossary On
Versions: 1 2 3 4 5 6 7 8 9 10 11 12 13 14 15 16
000
FTUS44 KBMX 040200 AAA
TAFANB
TAF AMD
KANB 040243Z 0403/0424 00000KT 1/2SM FG VCSH VV002
     FM040900 23003KT 1 1/2SM BR OVC004
     FM041600 23007KT 4SM BR OVC008
     FM041800 22010KT P6SM OVC015=

USA.gov is the U.S. government's official web portal to all federal, state and local government web resources and services.